Time;durP1;ratioP1;P1;durP2;ratioP2;P2;SDS_P1;SDS_P2;PMS_P1;PMS_P2;Temp;Humidity;BMP_temperature;BMP_pressure;BME280_temperature;BME280_humidity;BME280_pressure;Samples;Min_cycle;Max_cycle;Signal;HPM_P1;HPM_P2
2022/06/09 00:00:13;;;;;;;5.90;1.63;;;;;;;16.76;69.33;98543.44;5220144;28;20052;-70
2022/06/09 00:03:14;;;;;;;3.15;1.52;;;;;;;16.80;69.52;98550.03;5218798;28;20052;-70
2022/06/09 00:06:09;;;;;;;4.70;1.50;;;;;;;16.82;69.34;98548.00;5218955;28;20047;-70
2022/06/09 00:09:02;;;;;;;4.70;1.25;;;;;;;16.75;69.68;98551.66;5218338;28;20052;-70
2022/06/09 00:11:53;;;;;;;6.60;1.42;;;;;;;16.77;70.49;98547.75;5216647;28;20186;-71
2022/06/09 00:14:43;;;;;;;3.72;1.17;;;;;;;16.66;70.38;98557.13;5216770;28;20511;-71
2022/06/09 00:17:33;;;;;;;2.17;1.25;;;;;;;16.81;70.47;98564.25;5217833;28;20527;-71
2022/06/09 00:20:24;;;;;;;2.03;1.17;;;;;;;16.77;69.61;98566.50;5220784;28;20662;-71
2022/06/09 00:23:16;;;;;;;2.60;1.27;;;;;;;16.76;69.78;98554.16;5216266;28;20060;-70
2022/06/09 00:26:07;;;;;;;3.38;1.50;;;;;;;16.84;70.13;98570.03;5220378;28;20470;-70
2022/06/09 00:28:57;;;;;;;2.15;1.05;;;;;;;16.83;70.27;98565.72;5221155;28;20139;-70
2022/06/09 00:31:48;;;;;;;2.25;1.20;;;;;;;16.89;70.28;98575.66;5214338;28;20125;-70
2022/06/09 00:34:38;;;;;;;2.10;1.15;;;;;;;16.99;69.75;98561.09;5220725;28;20167;-70
2022/06/09 00:37:28;;;;;;;2.33;1.10;;;;;;;17.00;69.86;98579.66;5215544;28;20052;-71
2022/06/09 00:40:19;;;;;;;1.42;0.90;;;;;;;17.07;69.25;98577.84;5219822;28;20056;-70
2022/06/09 00:43:09;;;;;;;2.97;0.95;;;;;;;16.98;68.51;98567.47;5220681;28;20596;-70
2022/06/09 00:46:12;;;;;;;1.67;1.10;;;;;;;17.12;68.63;98582.63;5212731;28;20131;-70
2022/06/09 00:49:14;;;;;;;4.50;1.23;;;;;;;17.12;69.18;98575.41;5216955;28;20666;-70
2022/06/09 00:52:09;;;;;;;7.15;1.40;;;;;;;17.09;69.22;98583.03;5217496;28;20048;-71
2022/06/09 00:55:03;;;;;;;2.53;1.33;;;;;;;17.15;69.47;98584.88;5217994;28;20040;-71
2022/06/09 00:57:58;;;;;;;3.50;1.13;;;;;;;17.09;68.87;98564.28;5216174;28;20045;-71
2022/06/09 01:00:59;;;;;;;3.42;1.00;;;;;;;17.16;68.52;98583.88;5217335;28;20118;-71
2022/06/09 01:03:56;;;;;;;1.35;1.15;;;;;;;17.14;69.02;98585.91;5218181;28;20041;-71
2022/06/09 01:06:52;;;;;;;2.20;0.98;;;;;;;17.10;68.63;98579.31;5220190;28;20510;-71
2022/06/09 01:09:42;;;;;;;5.13;0.98;;;;;;;17.12;68.37;98585.31;5219245;28;20060;-71
2022/06/09 01:12:44;;;;;;;1.27;0.80;;;;;;;17.12;68.65;98586.13;5215112;28;20049;-71
2022/06/09 01:15:53;;;;;;;1.65;0.90;;;;;;;17.14;68.23;98573.34;5212938;28;20076;-71
2022/06/09 01:18:49;;;;;;;3.20;0.93;;;;;;;17.14;69.03;98577.88;5207337;28;20055;-71
2022/06/09 01:21:53;;;;;;;1.85;0.80;;;;;;;17.19;67.45;98566.59;5210461;28;20056;-71
2022/06/09 01:25:09;;;;;;;0.47;0.47;;;;;;;16.85;67.33;98542.28;5219088;28;20525;-71
2022/06/09 01:28:08;;;;;;;0.82;0.60;;;;;;;17.02;67.17;98584.78;5219458;28;20052;-71
2022/06/09 01:31:05;;;;;;;3.17;0.68;;;;;;;17.02;67.52;98584.78;5218629;28;20541;-71
2022/06/09 01:34:15;;;;;;;2.70;0.68;;;;;;;16.76;68.90;98580.09;5206876;28;20068;-71
2022/06/09 01:37:22;;;;;;;5.00;0.98;;;;;;;16.79;68.95;98591.25;5216715;28;20056;-71
2022/06/09 01:40:16;;;;;;;2.00;0.63;;;;;;;16.92;68.11;98587.84;5213099;28;20063;-71
2022/06/09 01:43:07;;;;;;;2.25;0.80;;;;;;;16.88;67.81;98582.03;5217817;28;20044;-71
2022/06/09 01:46:06;;;;;;;3.80;1.02;;;;;;;16.85;68.21;98585.13;5219278;28;20119;-71
2022/06/09 01:49:07;;;;;;;0.85;0.70;;;;;;;16.93;68.43;98594.03;5219881;28;20056;-71
2022/06/09 01:51:58;;;;;;;4.63;0.80;;;;;;;16.77;68.73;98597.81;5224289;28;20506;-71
2022/06/09 01:54:49;;;;;;;2.17;0.77;;;;;;;16.94;68.59;98601.03;5219735;28;20186;-70
2022/06/09 01:57:42;;;;;;;1.52;0.70;;;;;;;16.84;69.08;98598.69;5221510;28;20076;-71
2022/06/09 02:00:33;;;;;;;1.05;0.80;;;;;;;16.66;69.46;98596.44;5223463;28;20056;-71
2022/06/09 02:03:28;;;;;;;0.85;0.50;;;;;;;16.77;69.91;98609.34;5207320;28;20048;-71
2022/06/09 02:06:20;;;;;;;3.90;0.50;;;;;;;16.52;70.06;98602.69;5221022;28;20057;-71
2022/06/09 02:09:10;;;;;;;1.52;0.70;;;;;;;16.73;70.13;98601.84;5211313;28;20053;-70
2022/06/09 02:12:10;;;;;;;1.48;0.57;;;;;;;16.74;69.57;98608.88;5220555;28;20051;-71
2022/06/09 02:15:05;;;;;;;1.30;0.70;;;;;;;16.58;69.52;98600.06;5220258;28;20513;-70
2022/06/09 02:17:55;;;;;;;2.15;0.60;;;;;;;16.57;69.99;98608.31;5217251;28;20202;-71
2022/06/09 02:20:51;;;;;;;2.35;0.70;;;;;;;16.60;69.41;98592.69;5223163;28;20064;-71
2022/06/09 02:23:43;;;;;;;0.68;0.63;;;;;;;16.35;71.38;98602.94;5220537;28;20044;-70
2022/06/09 02:26:33;;;;;;;3.00;0.70;;;;;;;16.30;70.23;98575.94;5223645;28;20496;-71
2022/06/09 02:29:24;;;;;;;2.28;0.95;;;;;;;16.47;70.34;98611.28;5222802;28;20071;-70
2022/06/09 02:32:14;;;;;;;3.80;0.90;;;;;;;16.16;70.32;98596.38;5219365;28;20211;-71
2022/06/09 02:35:04;;;;;;;2.63;0.77;;;;;;;16.45;69.91;98600.75;5217280;28;20076;-71
2022/06/09 02:37:54;;;;;;;1.60;0.80;;;;;;;16.20;70.95;98615.53;5220937;28;20095;-71
2022/06/09 02:40:45;;;;;;;1.55;0.85;;;;;;;16.39;71.21;98630.97;5219319;28;20084;-71
2022/06/09 02:43:35;;;;;;;3.78;0.88;;;;;;;16.51;70.95;98625.13;5220705;28;20072;-69
2022/06/09 02:46:25;;;;;;;2.80;0.95;;;;;;;16.55;69.65;98621.03;5225970;28;20048;-70
2022/06/09 02:49:17;;;;;;;2.10;0.90;;;;;;;16.20;70.99;98631.59;5223704;28;20045;-70
2022/06/09 02:52:07;;;;;;;1.98;0.82;;;;;;;16.33;70.21;98625.56;5206943;28;20190;-70
2022/06/09 02:54:58;;;;;;;1.55;0.98;;;;;;;15.71;73.58;98626.88;5225430;28;20059;-70
2022/06/09 02:57:48;;;;;;;2.10;1.10;;;;;;;16.00;72.73;98628.69;5218640;28;20060;-70
2022/06/09 03:00:39;;;;;;;3.28;1.05;;;;;;;16.18;72.24;98634.44;5218348;28;20185;-70
2022/06/09 03:03:29;;;;;;;4.50;1.30;;;;;;;16.24;71.18;98629.38;5208424;28;20178;-69
2022/06/09 03:06:20;;;;;;;4.75;1.15;;;;;;;16.18;70.94;98641.63;5223141;28;20056;-69
2022/06/09 03:09:11;;;;;;;3.25;1.10;;;;;;;16.05;71.17;98631.63;5222030;28;20064;-70
2022/06/09 03:12:01;;;;;;;3.00;1.27;;;;;;;15.58;73.46;98630.16;5220126;28;20059;-70
2022/06/09 03:14:51;;;;;;;1.65;0.73;;;;;;;16.00;71.70;98647.41;5218048;28;20045;-70
2022/06/09 03:17:42;;;;;;;3.15;0.95;;;;;;;16.07;72.04;98640.28;5221577;28;20530;-70
2022/06/09 03:20:33;;;;;;;6.28;1.42;;;;;;;16.03;71.94;98646.22;5208995;28;20488;-70
2022/06/09 03:23:24;;;;;;;2.72;1.58;;;;;;;15.81;72.84;98627.41;5221269;28;20037;-70
2022/06/09 03:26:14;;;;;;;3.58;1.30;;;;;;;16.15;71.40;98647.38;5219725;28;20053;-70
2022/06/09 03:29:05;;;;;;;3.55;1.25;;;;;;;16.26;70.30;98652.25;5197490;28;20134;-70
2022/06/09 03:31:56;;;;;;;4.97;1.30;;;;;;;16.30;70.66;98648.16;5217141;28;20056;-70
2022/06/09 03:34:46;;;;;;;2.17;1.30;;;;;;;16.01;72.53;98654.41;5209120;28;20099;-69
2022/06/09 03:37:36;;;;;;;6.15;1.50;;;;;;;16.19;71.27;98651.31;5219806;28;20522;-70
2022/06/09 03:40:28;;;;;;;3.60;1.33;;;;;;;16.08;71.42;98633.09;5221260;28;20045;-70
2022/06/09 03:43:18;;;;;;;5.53;1.45;;;;;;;15.71;72.08;98650.94;5218218;28;20629;-70
2022/06/09 03:46:11;;;;;;;2.20;1.42;;;;;;;15.83;72.60;98670.03;5220962;28;20071;-70
2022/06/09 03:49:02;;;;;;;4.35;1.70;;;;;;;16.24;70.75;98666.81;5206937;28;20075;-70
2022/06/09 03:51:52;;;;;;;3.55;1.63;;;;;;;16.20;71.18;98677.91;5219666;28;20053;-69
2022/06/09 03:54:42;;;;;;;2.80;1.40;;;;;;;16.23;71.02;98674.03;5219814;28;20542;-70
2022/06/09 03:57:33;;;;;;;3.15;1.50;;;;;;;16.23;70.15;98676.69;5216827;28;20049;-70
2022/06/09 04:00:27;;;;;;;6.22;1.60;;;;;;;16.16;70.50;98675.78;5219597;28;20052;-70
2022/06/09 04:03:17;;;;;;;5.13;1.73;;;;;;;16.26;70.33;98676.31;5218611;28;20098;-70
2022/06/09 04:06:17;;;;;;;3.60;2.00;;;;;;;16.00;71.33;98682.16;5223139;28;20061;-70
2022/06/09 04:09:08;;;;;;;3.08;1.52;;;;;;;15.96;71.97;98676.38;5223971;28;20055;-70
2022/06/09 04:11:58;;;;;;;4.25;1.80;;;;;;;16.09;70.78;98685.56;5219838;28;20056;-70
2022/06/09 04:14:48;;;;;;;6.82;2.10;;;;;;;16.11;71.11;98688.88;5221754;28;20072;-70
2022/06/09 04:17:39;;;;;;;10.02;1.80;;;;;;;16.33;70.29;98677.22;5217689;28;20075;-71
2022/06/09 04:20:30;;;;;;;5.03;1.90;;;;;;;16.19;71.53;98691.44;5218504;28;20430;-71
2022/06/09 04:23:20;;;;;;;6.20;2.10;;;;;;;15.95;71.44;98690.72;5217263;28;20067;-70
2022/06/09 04:26:17;;;;;;;7.40;2.05;;;;;;;16.33;70.37;98687.94;5200819;28;20147;-70
2022/06/09 04:29:11;;;;;;;8.43;2.03;;;;;;;16.29;70.08;98700.03;5222739;28;20182;-71
2022/06/09 04:32:01;;;;;;;5.25;2.13;;;;;;;16.12;70.92;98696.72;5205056;28;20510;-70
2022/06/09 04:34:52;;;;;;;6.10;2.35;;;;;;;16.53;69.07;98698.03;5220027;28;20052;-70
2022/06/09 04:38:00;;;;;;;7.15;2.42;;;;;;;16.40;69.21;98701.38;5220516;28;20060;-71
2022/06/09 04:40:50;;;;;;;5.25;2.42;;;;;;;16.54;69.48;98713.88;5209052;28;20134;-70
2022/06/09 04:43:44;;;;;;;4.60;2.10;;;;;;;16.57;68.77;98715.38;5221229;28;20041;-71
2022/06/09 04:46:34;;;;;;;7.40;2.17;;;;;;;16.58;68.79;98723.19;5188410;28;20099;-70
2022/06/09 04:49:24;;;;;;;8.80;2.70;;;;;;;16.59;69.88;98729.41;5218442;28;20053;-71
2022/06/09 04:52:15;;;;;;;3.72;1.75;;;;;;;16.47;68.80;98736.25;5212726;28;20146;-70
2022/06/09 04:55:06;;;;;;;6.32;2.40;;;;;;;16.52;68.74;98734.63;5203349;28;20079;-71
2022/06/09 04:57:58;;;;;;;5.80;1.98;;;;;;;16.27;69.48;98731.47;5213731;28;20510;-70
2022/06/09 05:00:48;;;;;;;5.88;1.88;;;;;;;16.24;68.71;98747.06;5219429;28;20045;-71
2022/06/09 05:03:38;;;;;;;7.38;2.38;;;;;;;16.31;68.44;98756.84;5215567;28;20504;-71
2022/06/09 05:06:29;;;;;;;3.53;1.98;;;;;;;16.11;70.35;98753.06;5202968;28;20144;-71
2022/06/09 05:09:19;;;;;;;6.45;2.05;;;;;;;16.52;69.73;98757.91;5217256;28;20455;-70
2022/06/09 05:12:10;;;;;;;6.00;1.90;;;;;;;16.51;69.18;98758.94;5215742;28;20069;-70
2022/06/09 05:15:00;;;;;;;7.63;2.10;;;;;;;16.63;67.79;98760.13;5217786;28;20063;-71
2022/06/09 05:17:52;;;;;;;9.90;2.03;;;;;;;16.48;69.04;98773.50;5219680;28;20053;-70
2022/06/09 05:20:42;;;;;;;7.10;2.38;;;;;;;16.42;67.98;98758.19;5223298;28;20641;-70
2022/06/09 05:23:33;;;;;;;5.72;1.67;;;;;;;16.40;68.26;98761.06;5216406;28;20052;-71
2022/06/09 05:26:23;;;;;;;5.47;1.75;;;;;;;16.38;68.70;98765.78;5225552;28;20091;-71
2022/06/09 05:29:13;;;;;;;3.60;2.05;;;;;;;16.15;68.67;98770.41;5219505;28;20060;-70
2022/06/09 05:32:04;;;;;;;5.75;2.00;;;;;;;16.38;69.08;98772.97;5219615;28;20052;-71
2022/06/09 05:34:55;;;;;;;5.97;2.10;;;;;;;16.12;69.40;98776.94;5206374;28;20045;-70
2022/06/09 05:47:20;;;;;;;8.95;2.25;;;;;;;16.10;69.71;98797.72;5220235;28;20519;-71
2022/06/09 05:50:11;;;;;;;6.80;2.30;;;;;;;16.58;67.78;98792.78;5220464;28;20479;-71
2022/06/09 05:53:01;;;;;;;9.45;2.72;;;;;;;16.28;67.86;98797.34;5216895;28;20052;-71
2022/06/09 05:55:52;;;;;;;6.00;2.58;;;;;;;16.51;67.62;98797.22;5212381;28;20138;-70
2022/06/09 05:58:42;;;;;;;7.38;2.33;;;;;;;15.80;69.59;98806.72;5221545;28;20059;-70
2022/06/09 06:01:33;;;;;;;8.35;2.28;;;;;;;16.19;69.48;98814.50;5220800;28;20136;-70
2022/06/09 06:04:23;;;;;;;7.22;2.45;;;;;;;16.79;67.13;98809.97;5221293;28;20043;-70
2022/06/09 06:07:14;;;;;;;11.55;2.47;;;;;;;16.08;68.82;98813.09;5215355;28;20061;-70
2022/06/09 06:10:05;;;;;;;12.82;2.58;;;;;;;16.79;67.31;98826.84;5216812;28;20114;-70
2022/06/09 06:12:55;;;;;;;6.95;2.20;;;;;;;16.71;67.28;98828.78;5214938;28;20454;-70
2022/06/09 06:15:46;;;;;;;8.82;2.28;;;;;;;16.30;67.24;98835.44;5217125;28;20053;-70
2022/06/09 06:18:36;;;;;;;13.73;2.67;;;;;;;16.04;68.38;98819.84;5215185;28;20129;-70
2022/06/09 06:21:26;;;;;;;7.13;2.08;;;;;;;16.38;68.44;98807.75;5214533;28;20060;-70
2022/06/09 06:24:18;;;;;;;14.40;2.75;;;;;;;17.13;66.58;98849.50;5216524;28;20555;-69
2022/06/09 06:27:09;;;;;;;7.55;2.40;;;;;;;16.82;64.78;98834.53;5214812;28;20738;-71
2022/06/09 06:30:20;;;;;;;12.10;2.45;;;;;;;17.25;64.13;98844.44;5220650;28;20060;-72
2022/06/09 06:33:11;;;;;;;8.30;2.25;;;;;;;16.94;64.63;98839.38;5220003;28;20068;-72
2022/06/09 06:36:01;;;;;;;9.77;2.55;;;;;;;17.11;65.27;98857.69;5217008;28;20720;-72
2022/06/09 06:38:51;;;;;;;6.50;2.03;;;;;;;16.96;64.56;98848.06;5209042;28;20194;-73
2022/06/09 06:41:42;;;;;;;10.93;2.60;;;;;;;16.87;65.90;98845.47;5217551;28;20056;-72
2022/06/09 06:44:32;;;;;;;7.70;2.17;;;;;;;16.98;64.10;98860.22;5218630;28;20755;-73
2022/06/09 06:47:22;;;;;;;7.82;2.17;;;;;;;17.28;64.20;98870.88;5214147;28;20055;-70
2022/06/09 06:50:14;;;;;;;8.50;3.35;;;;;;;17.34;63.99;98868.25;5217363;28;20127;-72
2022/06/09 06:53:05;;;;;;;10.82;2.15;;;;;;;17.58;62.74;98868.91;5218225;28;20048;-72
2022/06/09 06:55:56;;;;;;;11.75;2.40;;;;;;;17.76;63.29;98882.72;5217968;28;20120;-72
2022/06/09 06:58:46;;;;;;;9.70;2.33;;;;;;;17.17;64.34;98866.00;5219070;28;20073;-72
2022/06/09 07:01:37;;;;;;;10.07;2.40;;;;;;;17.52;62.09;98869.69;5219792;28;20869;-73
2022/06/09 07:04:27;;;;;;;8.13;2.10;;;;;;;19.65;59.01;98877.13;5225416;28;20422;-69
2022/06/09 07:07:18;;;;;;;7.90;2.25;;;;;;;19.35;57.11;98871.25;5203206;28;20131;-72
2022/06/09 07:10:10;;;;;;;8.55;1.70;;;;;;;20.36;54.43;98874.66;5196718;28;20088;-73
2022/06/09 07:13:01;;;;;;;10.25;1.73;;;;;;;19.82;55.10;98878.38;5204557;28;20455;-73
2022/06/09 07:15:53;;;;;;;10.10;1.70;;;;;;;19.61;56.64;98881.25;5185552;28;20498;-72
2022/06/09 07:18:49;;;;;;;9.25;1.50;;;;;;;19.07;58.41;98885.63;5218205;28;20053;-73
2022/06/09 07:21:39;;;;;;;9.05;1.60;;;;;;;18.67;56.69;98879.22;5187830;28;20057;-71
2022/06/09 07:24:30;;;;;;;5.68;1.13;;;;;;;19.16;56.01;98888.97;5201832;28;20056;-72
2022/06/09 07:27:20;;;;;;;7.68;1.58;;;;;;;19.35;55.92;98887.38;5217456;28;20114;-73
2022/06/09 07:30:10;;;;;;;7.82;1.83;;;;;;;18.92;56.97;98901.91;5206820;28;20542;-74
2022/06/09 07:33:01;;;;;;;14.38;1.73;;;;;;;18.99;56.46;98904.63;5219588;28;20061;-71
2022/06/09 07:35:54;;;;;;;13.27;2.00;;;;;;;19.02;57.59;98898.84;5219652;28;20131;-74
2022/06/09 07:38:44;;;;;;;10.32;1.60;;;;;;;19.35;56.05;98906.22;5218375;28;20059;-73
2022/06/09 07:41:35;;;;;;;8.95;1.90;;;;;;;19.19;55.02;98916.28;5210377;28;20098;-74
2022/06/09 07:44:25;;;;;;;8.60;1.58;;;;;;;18.68;56.38;98905.06;5197012;28;20819;-73
2022/06/09 07:47:16;;;;;;;8.23;1.67;;;;;;;19.23;54.37;98919.41;5193662;28;20061;-74
2022/06/09 07:50:07;;;;;;;10.38;1.52;;;;;;;18.25;58.28;98922.13;5216823;28;20056;-78
2022/06/09 07:53:03;;;;;;;9.10;1.58;;;;;;;19.61;56.19;98914.34;5211614;28;20076;-75
2022/06/09 07:55:54;;;;;;;8.93;1.73;;;;;;;21.17;50.15;98919.19;5216593;28;20056;-75
2022/06/09 07:58:50;;;;;;;14.45;1.95;;;;;;;21.54;49.18;98917.56;5206403;28;20059;-74
2022/06/09 08:01:41;;;;;;;10.63;1.70;;;;;;;21.55;51.71;98908.44;5214957;28;20055;-75
2022/06/09 08:04:32;;;;;;;8.15;1.50;;;;;;;21.03;51.57;98926.50;5203578;28;20126;-74
2022/06/09 08:07:23;;;;;;;10.77;1.70;;;;;;;22.66;49.43;98925.84;5199490;28;20423;-74
2022/06/09 08:10:20;;;;;;;9.30;1.60;;;;;;;22.13;49.97;98929.00;5219746;28;20053;-74
2022/06/09 08:13:12;;;;;;;8.43;1.25;;;;;;;22.67;47.02;98932.06;5214470;28;20063;-75
2022/06/09 08:16:05;;;;;;;7.25;1.30;;;;;;;22.01;47.46;98936.16;5194893;28;20056;-75
2022/06/09 08:18:57;;;;;;;5.07;1.23;;;;;;;21.22;48.40;98926.63;5215066;28;20110;-73
2022/06/09 08:21:47;;;;;;;10.38;1.35;;;;;;;22.72;47.91;98938.47;5187268;28;20060;-74
2022/06/09 08:24:42;;;;;;;8.05;2.08;;;;;;;24.21;47.19;98916.34;5217510;28;20037;-75
2022/06/09 08:27:33;;;;;;;7.13;1.55;;;;;;;22.54;47.23;98918.69;5202057;28;20048;-74
2022/06/09 08:30:23;;;;;;;8.32;1.45;;;;;;;19.94;50.67;98918.97;5218671;28;20423;-74
2022/06/09 08:33:14;;;;;;;4.55;1.33;;;;;;;21.25;49.21;98937.00;5206819;28;20071;-74
2022/06/09 08:36:05;;;;;;;8.80;1.75;;;;;;;20.77;50.13;98940.88;5206589;28;20110;-74
2022/06/09 08:38:55;;;;;;;7.72;1.13;;;;;;;20.62;50.94;98942.97;5216835;28;20052;-74
2022/06/09 08:42:07;;;;;;;7.85;1.30;;;;;;;20.86;49.60;98938.78;5218784;28;20454;-74
2022/06/09 08:45:02;;;;;;;6.60;1.63;;;;;;;19.34;52.73;98934.13;5219022;28;20052;-74
2022/06/09 08:47:55;;;;;;;7.13;1.50;;;;;;;19.77;52.57;98939.22;5219305;28;20076;-74
2022/06/09 08:50:57;;;;;;;10.80;1.42;;;;;;;19.63;51.95;98951.78;5220265;28;20066;-74
2022/06/09 08:53:54;;;;;;;10.40;1.55;;;;;;;20.27;53.19;98945.91;5219082;28;20060;-74
2022/06/09 08:56:46;;;;;;;8.38;1.75;;;;;;;21.63;50.06;98928.13;5223408;28;20789;-74
2022/06/09 08:59:39;;;;;;;8.40;1.50;;;;;;;20.63;51.08;98937.41;5199747;28;20427;-74
2022/06/09 09:02:37;;;;;;;6.72;1.13;;;;;;;20.05;52.10;98958.72;5201387;28;20052;-74
2022/06/09 09:05:39;;;;;;;8.85;1.83;;;;;;;20.07;53.05;98962.03;5211867;28;20055;-74
2022/06/09 09:08:30;;;;;;;10.27;1.67;;;;;;;19.32;53.75;98957.69;5201302;28;20049;-74
2022/06/09 09:11:40;;;;;;;7.15;1.10;;;;;;;19.99;51.71;98948.78;5222800;28;20142;-74
2022/06/09 09:14:39;;;;;;;5.90;1.30;;;;;;;21.80;50.56;98957.06;5213918;28;20065;-73
2022/06/09 09:17:43;;;;;;;14.55;1.67;;;;;;;21.50;48.72;98956.81;5216769;28;20106;-74
2022/06/09 09:20:39;;;;;;;;;;;;;;;21.74;47.92;98957.94;5224197;28;20059;-73
2022/06/09 09:23:41;;;;;;;10.05;1.58;;;;;;;21.84;47.90;98959.34;5193046;28;19973;-73
2022/06/09 09:27:07;;;;;;;10.32;1.75;;;;;;;20.98;48.78;98958.66;5218297;28;20060;-74
2022/06/09 09:30:14;;;;;;;8.60;1.65;;;;;;;21.68;50.27;98952.56;5221010;28;20135;-73
2022/06/09 09:33:05;;;;;;;9.45;1.60;;;;;;;20.75;50.52;98963.69;5219272;28;20548;-74
2022/06/09 09:36:01;;;;;;;7.82;1.67;;;;;;;20.50;50.23;98953.56;5221563;28;20068;-74
2022/06/09 09:39:01;;;;;;;8.95;1.13;;;;;;;21.44;49.11;98960.38;5223083;28;20067;-74
2022/06/09 09:42:10;;;;;;;7.50;1.83;;;;;;;21.50;48.57;98961.41;5221505;28;20055;-74
2022/06/09 09:45:17;;;;;;;5.82;1.52;;;;;;;21.87;48.50;98975.91;5215026;28;20111;-74
2022/06/09 09:48:32;;;;;;;7.03;1.27;;;;;;;22.23;49.07;98969.06;5221477;28;20065;-74
2022/06/09 09:51:32;;;;;;;17.05;1.55;;;;;;;23.05;45.42;98956.25;5217380;28;20045;-75
2022/06/09 09:54:30;;;;;;;7.47;1.00;;;;;;;21.82;46.35;98962.25;5205862;28;20071;-74
2022/06/09 09:57:21;;;;;;;9.85;0.80;;;;;;;20.94;48.53;98962.81;5204158;28;20173;-74
2022/06/09 10:00:27;;;;;;;11.48;1.17;;;;;;;20.84;50.31;98955.16;5218511;28;20190;-74
2022/06/09 10:09:51;;;;;;;6.07;1.17;;;;;;;23.89;44.81;98967.25;5217719;28;20064;-72
2022/06/09 10:12:44;;;;;;;6.47;1.70;;;;;;;21.99;47.39;98982.28;5221758;28;20060;-75
2022/06/09 10:15:53;;;;;;;4.00;1.15;;;;;;;22.08;45.30;98973.91;5218980;28;20037;-76
2022/06/09 10:19:04;;;;;;;10.52;1.10;;;;;;;21.20;46.98;98972.69;5219629;28;20483;-72
2022/06/09 10:22:22;;;;;;;5.22;1.08;;;;;;;22.13;47.46;98974.91;5221017;28;20178;-74
2022/06/09 10:26:08;;;;;;;2.67;0.80;;;;;;;22.84;46.92;98978.28;5220813;28;20056;-75
2022/06/09 10:29:23;;;;;;;6.05;1.10;;;;;;;23.15;45.70;98980.88;5181925;28;20057;-75
2022/06/09 10:32:45;;;;;;;5.45;1.20;;;;;;;23.00;42.87;98985.00;5205616;28;20110;-76
2022/06/09 10:35:46;;;;;;;6.32;1.40;;;;;;;22.90;46.51;98977.38;5230148;28;20048;-75
2022/06/09 10:38:47;;;;;;;7.22;1.10;;;;;;;23.81;44.62;98983.84;5221811;28;20059;-78
2022/06/09 10:41:42;;;;;;;8.15;2.83;;;;;;;23.11;43.36;98986.94;5217921;28;20164;-75
2022/06/09 10:44:46;;;;;;;24.98;9.10;;;;;;;23.59;45.11;98989.69;5204028;28;20079;-76
2022/06/09 10:57:39;;;;;;;6.03;1.20;;;;;;;22.22;44.97;98980.91;5214785;28;20492;-72
2022/06/09 11:00:38;;;;;;;9.75;1.30;;;;;;;21.75;48.40;98988.44;5218352;28;20132;-74
2022/06/09 11:03:39;;;;;;;6.65;1.40;;;;;;;23.04;45.23;99005.13;5219145;28;20076;-71
2022/06/09 11:07:16;;;;;;;7.25;1.10;;;;;;;22.56;47.24;98998.50;5216856;28;20422;-74
2022/06/09 11:10:23;;;;;;;3.63;1.00;;;;;;;22.94;44.31;98992.13;5203569;28;20056;-71
2022/06/09 11:13:38;;;;;;;7.72;1.45;;;;;;;21.75;45.84;98991.13;5198973;28;20783;-73
2022/06/09 11:16:43;;;;;;;5.82;1.20;;;;;;;21.77;46.65;98992.59;5217712;28;20052;-70
2022/06/09 11:19:54;;;;;;;9.40;1.23;;;;;;;20.96;48.20;98993.09;5206364;28;20150;-71
2022/06/09 11:23:32;;;;;;;5.18;1.25;;;;;;;22.81;48.22;99003.88;5218700;28;20075;-71
2022/06/09 11:26:35;;;;;;;8.88;1.33;;;;;;;22.33;46.96;99001.81;5197901;28;20056;-72
2022/06/09 11:29:42;;;;;;;3.40;1.15;;;;;;;20.81;47.96;99005.97;5222639;28;20427;-70
2022/06/09 11:32:50;;;;;;;4.78;1.33;;;;;;;21.60;47.56;99012.19;5216993;28;20049;-70
2022/06/09 11:36:05;;;;;;;4.88;1.00;;;;;;;21.53;47.88;99015.75;5204430;28;20519;-73
2022/06/09 11:39:23;;;;;;;5.28;1.38;;;;;;;22.13;50.60;99009.19;5216539;28;20053;-70
2022/06/09 11:42:32;;;;;;;7.50;1.15;;;;;;;21.79;46.15;99017.50;5217511;28;20052;-70
2022/06/09 11:45:33;;;;;;;6.65;1.52;;;;;;;21.07;46.20;99007.78;5218354;28;20076;-72
2022/06/09 11:48:35;;;;;;;6.03;0.98;;;;;;;22.27;48.61;99010.78;5204078;28;20095;-70
2022/06/09 11:51:28;;;;;;;4.85;1.00;;;;;;;21.56;48.24;98999.13;5215557;28;20052;-72
2022/06/09 11:54:40;;;;;;;3.17;1.00;;;;;;;21.78;48.87;99010.41;5211603;28;20047;-72
2022/06/09 11:57:33;;;;;;;7.07;1.02;;;;;;;20.94;47.33;99010.50;5216753;28;20056;-70
2022/06/09 12:00:27;;;;;;;5.90;1.52;;;;;;;21.84;45.90;99011.44;5203558;28;20075;-70
2022/06/09 12:03:43;;;;;;;4.30;1.13;;;;;;;22.86;47.42;99008.63;5200251;28;20615;-70
2022/06/09 12:07:13;;;;;;;6.35;1.23;;;;;;;22.97;45.94;99011.44;5208360;28;20045;-72
2022/06/09 12:10:35;;;;;;;8.00;1.30;;;;;;;22.77;45.74;99012.66;5230086;28;20686;-71
2022/06/09 12:13:33;;;;;;;9.75;1.23;;;;;;;23.04;46.43;99018.66;5210362;28;20623;-72
2022/06/09 12:16:34;;;;;;;5.15;1.10;;;;;;;22.18;46.02;99012.91;5219328;28;20091;-71
2022/06/09 12:19:31;;;;;;;6.95;1.00;;;;;;;22.14;44.48;99016.25;5222558;28;20526;-70
2022/06/09 12:22:39;;;;;;;3.40;1.20;;;;;;;22.24;46.81;99011.22;5220943;28;20171;-70
2022/06/09 12:25:36;;;;;;;4.13;1.00;;;;;;;23.01;45.29;99005.56;5216959;28;20048;-70
2022/06/09 12:28:45;;;;;;;4.68;1.13;;;;;;;21.11;45.49;99027.88;5225931;28;20095;-70
2022/06/09 12:31:37;;;;;;;5.78;1.27;;;;;;;22.31;45.95;99022.78;5219565;28;20053;-70
2022/06/09 12:34:28;;;;;;;7.25;1.25;;;;;;;22.25;45.15;99012.84;5217323;28;20052;-70
2022/06/09 12:37:26;;;;;;;4.15;1.15;;;;;;;23.40;44.02;99015.13;5220200;28;20063;-71
2022/06/09 12:40:21;;;;;;;6.00;0.90;;;;;;;22.15;44.52;99018.78;5217107;28;20060;-72
2022/06/09 12:43:40;;;;;;;8.35;1.38;;;;;;;22.45;44.73;99024.38;5215544;28;20064;-71
2022/06/09 12:46:32;;;;;;;7.20;1.38;;;;;;;22.04;45.80;99032.91;5218231;28;20049;-72
2022/06/09 12:49:34;;;;;;;5.38;1.10;;;;;;;22.62;44.54;99030.03;5217347;28;20053;-71
2022/06/09 12:52:32;;;;;;;5.45;1.30;;;;;;;22.86;44.44;99033.78;5215590;28;20052;-71
2022/06/09 12:55:30;;;;;;;5.40;1.13;;;;;;;22.50;43.57;99032.63;5219829;28;20195;-71
2022/06/09 12:58:29;;;;;;;6.65;1.35;;;;;;;22.53;43.02;99025.97;5210340;28;20772;-71
2022/06/09 13:01:23;;;;;;;4.53;1.42;;;;;;;22.03;42.42;99037.50;5205109;28;20052;-71
2022/06/09 13:04:17;;;;;;;6.30;1.08;;;;;;;21.86;43.22;99025.56;5215857;28;20060;-70
2022/06/09 13:07:24;;;;;;;4.68;1.13;;;;;;;21.59;43.57;99032.97;5218054;28;20122;-70
2022/06/09 13:10:32;;;;;;;7.53;1.50;;;;;;;21.10;44.05;99043.22;5216164;28;20109;-70
2022/06/09 13:13:35;;;;;;;6.65;1.20;;;;;;;21.54;43.04;99043.56;5214873;28;20052;-71
2022/06/09 13:16:28;;;;;;;7.47;1.50;;;;;;;21.39;43.41;99043.81;5220484;28;20055;-70
2022/06/09 13:19:24;;;;;;;4.60;1.83;;;;;;;21.73;44.70;99041.81;5213336;28;21056;-69
2022/06/09 13:22:16;;;;;;;8.02;1.52;;;;;;;21.32;42.97;99038.41;5218023;28;20060;-71
2022/06/09 13:25:13;;;;;;;6.13;1.33;;;;;;;21.88;42.18;99050.44;5202172;28;20127;-70
2022/06/09 13:28:05;;;;;;;7.65;2.20;;;;;;;22.45;41.65;99040.56;5216890;28;20041;-71
2022/06/09 13:30:59;;;;;;;6.93;1.40;;;;;;;22.50;45.18;99048.00;5200769;28;20053;-71
2022/06/09 13:34:00;;;;;;;8.65;1.70;;;;;;;22.60;42.44;99052.94;5210481;28;20664;-70
2022/06/09 13:36:53;;;;;;;4.13;1.15;;;;;;;22.43;41.78;99047.25;5215222;28;20044;-70
2022/06/09 13:39:45;;;;;;;8.65;1.88;;;;;;;22.89;41.55;99056.84;5217676;28;20435;-70
2022/06/09 13:42:50;;;;;;;5.10;1.40;;;;;;;22.53;42.42;99052.97;5221065;28;20052;-70
2022/06/09 13:45:40;;;;;;;6.45;1.50;;;;;;;21.83;39.99;99058.38;5217699;28;20519;-71
2022/06/09 13:48:45;;;;;;;7.18;1.80;;;;;;;21.83;41.27;99060.25;5223232;28;20099;-70
2022/06/09 13:51:36;;;;;;;;;;;;;;;22.30;42.97;99071.66;5218884;28;20048;-70
2022/06/09 13:54:31;;;;;;;7.72;2.00;;;;;;;22.75;42.49;99067.78;5215308;28;19924;-70
2022/06/09 13:57:32;;;;;;;8.88;1.55;;;;;;;22.05;44.72;99070.53;5218863;28;20138;-70
2022/06/09 14:00:23;;;;;;;7.55;1.50;;;;;;;21.93;44.79;99074.13;5207808;28;20091;-70
2022/06/09 14:03:42;;;;;;;4.25;1.70;;;;;;;22.68;44.31;99076.97;5204093;28;20048;-70
2022/06/09 14:06:32;;;;;;;8.48;1.63;;;;;;;22.30;42.23;99069.78;5214942;28;20142;-70
2022/06/09 14:09:22;;;;;;;7.70;1.92;;;;;;;22.29;43.67;99089.72;5217246;28;20146;-70
2022/06/09 14:12:13;;;;;;;5.90;1.80;;;;;;;22.78;43.40;99080.03;5214590;28;20190;-70
2022/06/09 14:15:04;;;;;;;9.93;1.88;;;;;;;22.06;41.44;99087.53;5216277;28;20049;-71